Wrigley, Canada
Current Conditions -  °F | °C
As of 7:00 AM on Thursday 23 Oct 2014 (Local Time) from CYFS Reporting Station
Light Snow Light Snow  
Wind Chill: 17°   Ceiling: 2000
Heat Index: 27°   Visibility: 6mi
Dew Point: 25°   Wind: 10mph
Humidity: 93%   Direction: 280°W
Pressure: 29.54"   Gusts: NA
Location:  63.27°N, 123.6°W
Report Text: CYFS 231300Z 28009KT 6SM -SN OVC020 M03/M04 A2954 RMK SC8 SLP016
Loading
Personal Weather Stations






























Interactive Weather Map
Tropical Storm Tracking
New forecast layout! Learn more

10-Day Weather Forecast

Advertisements
Track Severe Weather on mobile